CPX322 Details

Departure: Lehigh Valley International Airport (KABE)
Arrival: Chicago/Rockford International Airport (KRFD)
Route: PSB J60 JOT V171 RFD


Current Weather Information
KABE 232251Z AUTO 17008KT 10SM CLR 24/18 A2990 RMK AO2 SLP122 T02390178 $
KRFD 232254Z 27008KT 10SM FEW250 23/11 A3006 RMK AO2 SLP177 T02280111